Terminal Aerodrome Forecast
Issued by NWS

Current Version | Previous Version | Graphics & Text | Print | Product List | Glossary On
Versions: 1 2 3 4 5 6 7 8 9 10 11 12 13 14 15 16
000
FTUS41 KRNK 270525
TAFLWB
TAF
KLWB 270525Z 2706/2806 00000KT P6SM SCT060 BKN090
     FM270900 00000KT 3SM BR SCT050
      TEMPO 2709/2711 1/2SM FG VV001
     FM271400 25003KT P6SM SCT012
     FM272000 22005KT P6SM BKN040=

USA.gov is the U.S. government's official web portal to all federal, state and local government web resources and services.